Terminal Aerodrome Forecast
Issued by NWS

Home | Current Version | Previous Version | Text Only | Print | Product List | Glossary On
Versions: 1 2 3 4 5 6 7 8 9 10 11 12 13 14
000
FTAK31 PAJN 172326
TAFASI
TAF
PASI 172326Z 1800/1824 11015G20KT 6SM -SNRA BR SCT015 OVC025
      WS020/17025KT
      TEMPO 1800/1802 2SM -SN BR BKN015 OVC025
     FM180200 15012KT 5SM -SNRA BR BKN025 OVC035
     FM180600 12008KT P6SM -SHRA SCT025 OVC035
     FM181800 10007KT P6SM VCSH SCT025 OVC050=

USA.gov is the U.S. government's official web portal to all federal, state and local government web resources and services.